createdAt,value
2019-03-30T00:00:20.977Z,13.17
2019-03-30T00:02:49.578Z,13.87
2019-03-30T00:05:19.208Z,12.50
2019-03-30T00:07:47.704Z,13.53
2019-03-30T00:10:16.347Z,14.40
2019-03-30T00:12:44.969Z,13.20
2019-03-30T00:15:13.537Z,13.50
2019-03-30T00:17:42.142Z,14.30
2019-03-30T00:20:10.829Z,13.17
2019-03-30T00:22:39.471Z,13.70
2019-03-30T00:25:08.158Z,13.47
2019-03-30T00:27:36.837Z,12.37
2019-03-30T00:30:07.253Z,13.40
2019-03-30T00:32:40.155Z,13.27
2019-03-30T00:35:08.790Z,14.53
2019-03-30T00:37:37.400Z,15.67
2019-03-30T00:40:07.050Z,16.27
2019-03-30T00:42:35.735Z,15.70
2019-03-30T00:45:06.324Z,15.50
2019-03-30T00:47:34.939Z,15.50
2019-03-30T00:50:03.656Z,16.03
2019-03-30T00:52:33.469Z,15.03
2019-03-30T00:55:01.969Z,15.33
2019-03-30T00:57:30.570Z,15.93
2019-03-30T00:59:59.828Z,13.73
2019-03-30T01:02:28.431Z,14.40
2019-03-30T01:04:56.993Z,14.30
2019-03-30T01:07:25.570Z,14.43
2019-03-30T01:09:54.138Z,14.10
2019-03-30T01:12:22.708Z,13.33
2019-03-30T01:14:51.203Z,14.07
2019-03-30T01:17:19.942Z,13.57
2019-03-30T01:20:01.936Z,14.30
2019-03-30T01:22:18.852Z,14.33
2019-03-30T01:24:47.528Z,14.37
2019-03-30T01:27:16.163Z,14.23
2019-03-30T01:29:44.819Z,13.60
2019-03-30T01:32:14.941Z,13.03
2019-03-30T01:34:43.610Z,13.20
2019-03-30T01:37:13.566Z,16.43
2019-03-30T01:39:42.244Z,17.47
2019-03-30T01:42:10.886Z,18.47
2019-03-30T01:44:39.379Z,18.70
2019-03-30T01:47:08.058Z,22.00
2019-03-30T01:49:36.668Z,21.37
2019-03-30T01:52:05.304Z,21.50
2019-03-30T01:54:33.868Z,20.97
2019-03-30T01:57:02.544Z,21.03
2019-03-30T01:59:31.040Z,20.40
2019-03-30T02:01:59.750Z,19.80
2019-03-30T02:04:28.241Z,21.87
2019-03-30T02:06:56.786Z,20.87
2019-03-30T02:09:25.357Z,21.20
2019-03-30T02:11:54.016Z,21.77
2019-03-30T02:14:22.576Z,22.73
2019-03-30T02:16:51.131Z,29.17
2019-03-30T02:19:19.920Z,33.70
2019-03-30T02:21:48.527Z,36.73
2019-03-30T02:24:17.209Z,36.37
2019-03-30T02:26:45.853Z,35.77
2019-03-30T02:29:14.422Z,26.03
2019-03-30T02:31:43.092Z,20.40
2019-03-30T02:34:11.747Z,20.13
2019-03-30T02:36:40.372Z,21.07
2019-03-30T02:39:09.006Z,19.63
2019-03-30T02:41:37.617Z,21.13
2019-03-30T02:44:06.187Z,20.40
2019-03-30T02:46:34.886Z,18.93
2019-03-30T02:49:03.501Z,18.03
2019-03-30T02:51:32.018Z,17.30
2019-03-30T02:54:00.630Z,17.73
2019-03-30T02:56:29.119Z,16.47
2019-03-30T02:58:57.725Z,16.90
2019-03-30T03:01:26.367Z,18.03
2019-03-30T03:03:54.942Z,19.80
2019-03-30T03:06:24.089Z,17.37
2019-03-30T03:08:52.642Z,17.57
2019-03-30T03:11:21.321Z,17.67
2019-03-30T03:13:49.960Z,17.37
2019-03-30T03:16:18.525Z,17.43
2019-03-30T03:18:47.103Z,17.73
2019-03-30T03:21:15.711Z,18.33
2019-03-30T03:23:44.271Z,20.13
2019-03-30T03:26:12.876Z,20.47
2019-03-30T03:28:41.441Z,19.83
2019-03-30T03:31:10.134Z,21.03
2019-03-30T03:33:38.634Z,19.37
2019-03-30T03:36:07.265Z,19.53
2019-03-30T03:38:35.939Z,17.83
2019-03-30T03:41:04.636Z,18.07
2019-03-30T03:43:33.313Z,17.93
2019-03-30T03:46:01.921Z,18.80
2019-03-30T03:48:30.411Z,19.23
2019-03-30T03:51:02.021Z,19.10
2019-03-30T03:53:31.275Z,19.17
2019-03-30T03:56:01.941Z,17.90
2019-03-30T03:58:33.776Z,19.53
2019-03-30T04:01:02.841Z,21.27
2019-03-30T04:03:33.344Z,22.00
2019-03-30T04:06:04.894Z,23.13
2019-03-30T04:08:33.568Z,21.87
2019-03-30T04:11:03.691Z,23.23
2019-03-30T04:13:32.524Z,22.17
2019-03-30T04:16:01.172Z,24.07
2019-03-30T04:18:29.797Z,25.20
2019-03-30T04:20:58.378Z,24.13
2019-03-30T04:23:26.946Z,25.70
2019-03-30T04:25:55.634Z,24.07
2019-03-30T04:28:24.249Z,25.57
2019-03-30T04:30:52.831Z,25.53
2019-03-30T04:33:21.413Z,21.37
2019-03-30T04:35:49.967Z,21.47
2019-03-30T04:38:18.662Z,22.30
2019-03-30T04:40:47.292Z,22.07
2019-03-30T04:43:15.911Z,22.07
2019-03-30T04:45:44.505Z,20.17
2019-03-30T04:48:14.655Z,21.53
2019-03-30T04:50:43.296Z,23.00
2019-03-30T04:53:11.867Z,22.80
2019-03-30T04:55:40.563Z,23.50
2019-03-30T04:58:09.658Z,22.53
2019-03-30T05:00:38.271Z,20.80
2019-03-30T05:03:06.951Z,22.57
2019-03-30T05:05:35.579Z,20.90
2019-03-30T05:08:04.214Z,21.23
2019-03-30T05:10:32.835Z,18.37
2019-03-30T05:13:01.443Z,21.50
2019-03-30T05:15:30.056Z,19.80
2019-03-30T05:17:58.624Z,20.23
2019-03-30T05:20:27.303Z,20.10
2019-03-30T05:22:55.927Z,20.90
2019-03-30T05:25:24.535Z,22.40
2019-03-30T05:27:53.097Z,20.27
2019-03-30T05:30:21.785Z,21.43
2019-03-30T05:33:04.662Z,20.40
2019-03-30T05:35:20.822Z,18.93
2019-03-30T05:37:49.383Z,19.67
2019-03-30T05:40:18.060Z,19.07
2019-03-30T05:42:46.673Z,18.33
2019-03-30T05:45:15.309Z,18.70
2019-03-30T05:47:43.917Z,17.53
2019-03-30T05:50:13.048Z,16.50
2019-03-30T05:52:41.723Z,18.43
2019-03-30T05:55:10.371Z,15.83
2019-03-30T05:57:38.997Z,16.90
2019-03-30T06:00:09.307Z,16.77
2019-03-30T06:02:37.981Z,19.00
2019-03-30T06:05:06.916Z,18.23
2019-03-30T06:07:35.512Z,20.27
2019-03-30T06:10:05.755Z,18.60
2019-03-30T06:12:37.071Z,19.87
2019-03-30T06:15:07.774Z,20.63
2019-03-30T06:17:36.316Z,20.83
2019-03-30T06:20:12.016Z,18.80
2019-03-30T06:22:40.940Z,17.87
2019-03-30T06:25:09.823Z,15.43
2019-03-30T06:27:38.442Z,15.57
2019-03-30T06:30:18.840Z,15.53
2019-03-30T06:32:47.524Z,14.97
2019-03-30T06:35:16.188Z,15.87
2019-03-30T06:37:44.820Z,15.57
2019-03-30T06:40:13.928Z,15.37
2019-03-30T06:42:42.601Z,14.73
2019-03-30T06:45:11.334Z,14.70
2019-03-30T06:47:41.157Z,14.53
2019-03-30T06:50:15.959Z,14.67
2019-03-30T06:52:56.754Z,14.27
2019-03-30T06:55:15.087Z,14.60
2019-03-30T06:57:43.715Z,14.60
2019-03-30T07:00:12.617Z,14.17
2019-03-30T07:02:42.716Z,15.30
2019-03-30T07:05:11.353Z,17.27
2019-03-30T07:07:43.861Z,13.97
2019-03-30T07:10:12.491Z,15.50
2019-03-30T07:12:41.875Z,15.23
2019-03-30T07:15:10.908Z,14.67
2019-03-30T07:17:45.250Z,15.20
2019-03-30T07:20:19.765Z,14.83
2019-03-30T07:22:51.153Z,13.73
2019-03-30T07:25:18.692Z,15.23
2019-03-30T07:27:47.184Z,14.73
2019-03-30T07:30:15.885Z,15.50
2019-03-30T07:32:44.518Z,14.63
2019-03-30T07:35:13.247Z,14.27
2019-03-30T07:37:45.594Z,13.93
2019-03-30T07:40:14.284Z,13.50
2019-03-30T07:42:42.957Z,14.17
2019-03-30T07:45:11.591Z,14.23
2019-03-30T07:47:40.211Z,13.10
2019-03-30T07:50:10.001Z,14.03
2019-03-30T07:52:38.501Z,16.43
2019-03-30T07:55:07.811Z,16.47
2019-03-30T07:57:36.425Z,15.60
2019-03-30T08:00:08.551Z,15.33
2019-03-30T08:02:37.189Z,13.57
2019-03-30T08:05:07.348Z,14.03
2019-03-30T08:07:36.019Z,12.90
2019-03-30T08:10:06.168Z,14.90
2019-03-30T08:12:34.878Z,13.27
2019-03-30T08:15:04.450Z,12.87
2019-03-30T08:17:33.081Z,13.87
2019-03-30T08:20:01.757Z,13.73
2019-03-30T08:22:30.259Z,13.97
2019-03-30T08:24:58.868Z,13.83
2019-03-30T08:27:27.433Z,15.23
2019-03-30T08:29:56.076Z,14.90
2019-03-30T08:32:24.778Z,14.43
2019-03-30T08:34:53.298Z,15.57
2019-03-30T08:37:22.079Z,14.97
2019-03-30T08:39:50.638Z,15.27
2019-03-30T08:42:20.051Z,16.00
2019-03-30T08:44:48.772Z,16.87
2019-03-30T08:47:17.416Z,13.90
2019-03-30T08:49:46.100Z,14.17
2019-03-30T08:52:14.955Z,14.93
2019-03-30T08:54:43.628Z,13.50
2019-03-30T08:57:16.278Z,15.77
2019-03-30T08:59:45.070Z,13.97
2019-03-30T09:02:13.699Z,13.13
2019-03-30T09:04:42.261Z,11.40
2019-03-30T09:07:10.939Z,11.63
2019-03-30T09:09:39.580Z,12.27
2019-03-30T09:12:08.250Z,12.07
2019-03-30T09:14:36.806Z,12.00
2019-03-30T09:17:05.410Z,13.03
2019-03-30T09:19:33.975Z,11.20
2019-03-30T09:22:02.589Z,10.27
2019-03-30T09:24:31.151Z,13.50
2019-03-30T09:26:59.692Z,11.27
2019-03-30T09:29:28.355Z,13.37
2019-03-30T09:31:56.917Z,12.27
2019-03-30T09:34:25.612Z,13.53
2019-03-30T09:36:54.289Z,14.80
2019-03-30T09:39:23.015Z,12.43
2019-03-30T09:41:52.573Z,13.60
2019-03-30T09:44:21.301Z,11.13
2019-03-30T09:46:49.939Z,11.23
2019-03-30T09:49:18.533Z,13.87
2019-03-30T09:51:47.139Z,17.30
2019-03-30T09:54:23.509Z,10.17
2019-03-30T09:56:45.919Z,10.40
2019-03-30T09:59:14.529Z,12.10
2019-03-30T10:01:43.154Z,12.13
2019-03-30T10:04:11.796Z,11.30
2019-03-30T10:06:40.397Z,11.77
2019-03-30T10:09:09.066Z,9.87
2019-03-30T10:11:37.628Z,10.57
2019-03-30T10:14:06.303Z,10.73
2019-03-30T10:16:34.864Z,9.50
2019-03-30T10:19:03.492Z,10.07
2019-03-30T10:21:32.100Z,10.33
2019-03-30T10:24:00.729Z,10.10
2019-03-30T10:26:29.326Z,9.93
2019-03-30T10:28:57.965Z,11.13
2019-03-30T10:31:26.708Z,10.87
2019-03-30T10:33:55.278Z,18.57
2019-03-30T10:36:24.019Z,9.43
2019-03-30T10:38:52.646Z,9.53
2019-03-30T10:41:21.242Z,8.40
2019-03-30T10:43:49.887Z,9.37
2019-03-30T10:46:18.485Z,8.63
2019-03-30T10:48:47.129Z,9.47
2019-03-30T10:51:15.874Z,9.23
2019-03-30T10:53:44.580Z,21.00
2019-03-30T10:56:13.182Z,11.40
2019-03-30T10:58:41.786Z,9.87
2019-03-30T11:01:10.410Z,9.53
2019-03-30T11:03:39.016Z,9.27
2019-03-30T11:06:07.725Z,10.43
2019-03-30T11:08:36.360Z,10.30
2019-03-30T11:11:05.030Z,10.37
2019-03-30T11:13:33.711Z,10.63
2019-03-30T11:16:02.338Z,9.93
2019-03-30T11:18:31.095Z,9.90
2019-03-30T11:20:59.721Z,9.60
2019-03-30T11:23:28.468Z,9.33
2019-03-30T11:25:57.026Z,9.10
2019-03-30T11:28:25.695Z,9.38
2019-03-30T11:30:54.393Z,10.00
2019-03-30T11:33:23.095Z,8.75
2019-03-30T11:35:51.808Z,9.40
2019-03-30T11:38:20.441Z,9.00
2019-03-30T11:40:49.161Z,11.08
2019-03-30T11:43:17.810Z,11.40
2019-03-30T11:45:46.555Z,10.90
2019-03-30T11:48:15.356Z,11.23
2019-03-30T11:50:44.108Z,10.73
2019-03-30T11:53:12.807Z,9.20
2019-03-30T11:55:41.552Z,10.10
2019-03-30T11:58:10.181Z,9.68
2019-03-30T12:00:41.694Z,9.35
2019-03-30T12:03:10.403Z,8.58
2019-03-30T12:05:39.148Z,9.28
2019-03-30T12:08:07.944Z,8.85
2019-03-30T12:10:36.755Z,8.73
2019-03-30T12:13:05.476Z,8.73
2019-03-30T12:15:34.275Z,8.68
2019-03-30T12:18:03.024Z,9.08
2019-03-30T12:20:31.753Z,8.78
2019-03-30T12:23:00.451Z,10.20
2019-03-30T12:25:35.295Z,8.90
2019-03-30T12:27:59.815Z,10.32
2019-03-30T12:30:28.555Z,9.23
2019-03-30T12:32:57.276Z,8.98
2019-03-30T12:35:26.006Z,9.25
2019-03-30T12:37:54.713Z,9.50
2019-03-30T12:40:23.431Z,9.45
2019-03-30T12:42:52.131Z,8.60
2019-03-30T12:45:20.805Z,8.80
2019-03-30T12:47:49.508Z,8.25
2019-03-30T12:50:18.178Z,9.10
2019-03-30T12:52:46.874Z,9.88
2019-03-30T12:55:15.615Z,9.45
2019-03-30T12:57:44.320Z,10.03
2019-03-30T13:00:13.675Z,10.20
2019-03-30T13:02:42.386Z,9.70
2019-03-30T13:05:11.119Z,9.78
2019-03-30T13:07:39.823Z,8.90
2019-03-30T13:10:09.085Z,8.75
2019-03-30T13:12:37.831Z,9.10
2019-03-30T13:15:08.234Z,9.03
2019-03-30T13:17:36.977Z,9.10
2019-03-30T13:20:07.079Z,10.00
2019-03-30T13:22:35.779Z,8.95
2019-03-30T13:25:05.595Z,9.48
2019-03-30T13:27:34.592Z,9.00
2019-03-30T13:30:04.496Z,8.78
2019-03-30T13:32:33.197Z,9.20
2019-03-30T13:35:01.937Z,8.33
2019-03-30T13:37:30.639Z,10.60
2019-03-30T13:39:59.339Z,8.88
2019-03-30T13:42:28.048Z,7.97
2019-03-30T13:44:56.740Z,7.65
2019-03-30T13:47:25.462Z,11.85
2019-03-30T13:49:54.165Z,10.80
2019-03-30T13:52:22.902Z,10.18
2019-03-30T13:54:51.608Z,7.83
2019-03-30T13:57:20.351Z,9.13
2019-03-30T13:59:49.049Z,9.58
2019-03-30T14:02:17.875Z,7.58
2019-03-30T14:04:46.586Z,9.10
2019-03-30T14:07:15.326Z,9.23
2019-03-30T14:09:44.044Z,8.38
2019-03-30T14:12:12.742Z,9.55
2019-03-30T14:14:41.481Z,8.58
2019-03-30T14:17:10.172Z,7.87
2019-03-30T14:19:38.918Z,8.25
2019-03-30T14:22:07.628Z,8.88
2019-03-30T14:24:36.319Z,8.75
2019-03-30T14:27:05.055Z,9.50
2019-03-30T14:29:33.772Z,9.58
2019-03-30T14:32:02.473Z,8.87
2019-03-30T14:34:31.188Z,8.90
2019-03-30T14:36:59.929Z,8.53
2019-03-30T14:39:28.624Z,8.80
2019-03-30T14:41:57.356Z,8.95
2019-03-30T14:44:26.165Z,8.25
2019-03-30T14:46:55.057Z,8.38
2019-03-30T14:49:23.760Z,8.55
2019-03-30T14:51:52.454Z,8.60
2019-03-30T14:54:21.161Z,9.17
2019-03-30T14:56:49.860Z,9.70
2019-03-30T14:59:18.552Z,9.05
2019-03-30T15:01:47.446Z,8.60
2019-03-30T15:04:16.296Z,9.10
2019-03-30T15:06:44.998Z,9.33
2019-03-30T15:09:13.921Z,9.10
2019-03-30T15:11:45.886Z,9.33
2019-03-30T15:14:14.832Z,10.23
2019-03-30T15:16:43.838Z,9.98
2019-03-30T15:19:12.799Z,9.35
2019-03-30T15:21:41.787Z,8.90
2019-03-30T15:24:10.823Z,8.80
2019-03-30T15:26:39.624Z,8.70
2019-03-30T15:29:08.363Z,16.37
2019-03-30T15:31:37.357Z,9.37
2019-03-30T15:34:06.367Z,9.53
2019-03-30T15:36:35.404Z,8.93
2019-03-30T15:39:05.540Z,8.93
2019-03-30T15:41:34.384Z,12.07
2019-03-30T15:44:03.287Z,9.97
2019-03-30T15:46:32.071Z,9.23
2019-03-30T15:49:00.814Z,9.43
2019-03-30T15:51:29.821Z,9.43
2019-03-30T15:53:58.827Z,10.33
2019-03-30T15:56:27.723Z,9.60
2019-03-30T15:58:56.426Z,10.53
2019-03-30T16:01:25.221Z,13.50
2019-03-30T16:03:54.172Z,10.37
2019-03-30T16:06:22.965Z,11.17
2019-03-30T16:08:51.723Z,11.77
2019-03-30T16:11:22.029Z,12.07
2019-03-30T16:13:50.858Z,10.90
2019-03-30T16:16:19.637Z,11.07
2019-03-30T16:18:48.345Z,10.37
2019-03-30T16:21:17.389Z,11.30
2019-03-30T16:23:46.390Z,12.30
2019-03-30T16:26:15.544Z,12.03
2019-03-30T16:28:44.584Z,12.60
2019-03-30T16:31:13.579Z,12.00
2019-03-30T16:33:42.702Z,11.80
2019-03-30T16:36:11.701Z,12.73
2019-03-30T16:38:40.713Z,13.33
2019-03-30T16:41:09.766Z,13.43
2019-03-30T16:43:38.848Z,13.40
2019-03-30T16:46:07.852Z,13.13
2019-03-30T16:48:36.857Z,13.37
2019-03-30T16:51:05.964Z,13.90
2019-03-30T16:53:35.013Z,15.73
2019-03-30T16:56:04.061Z,15.60
2019-03-30T16:58:33.075Z,15.77
2019-03-30T17:01:02.179Z,15.90
2019-03-30T17:03:31.220Z,15.00
2019-03-30T17:06:00.219Z,15.53
2019-03-30T17:08:29.265Z,17.77
2019-03-30T17:10:58.262Z,16.67
2019-03-30T17:13:27.310Z,16.73
2019-03-30T17:15:58.478Z,17.33
2019-03-30T17:18:27.987Z,17.53
2019-03-30T17:20:57.028Z,19.90
2019-03-30T17:23:32.160Z,32.93
2019-03-30T17:26:01.203Z,55.70
2019-03-30T17:28:30.208Z,66.17
2019-03-30T17:30:59.259Z,24.13
2019-03-30T17:33:29.302Z,20.53
2019-03-30T17:35:58.314Z,23.73
2019-03-30T17:38:27.376Z,20.70
2019-03-30T17:40:56.378Z,26.87
2019-03-30T17:43:25.387Z,27.77
2019-03-30T17:45:54.404Z,30.97
2019-03-30T17:48:23.415Z,56.80
2019-03-30T17:50:52.418Z,39.13
2019-03-30T17:53:21.466Z,38.83
2019-03-30T17:55:50.498Z,49.40
2019-03-30T17:58:19.556Z,57.13
2019-03-30T18:00:48.574Z,62.93
2019-03-30T18:03:17.594Z,61.60
2019-03-30T18:05:47.530Z,58.57
2019-03-30T18:08:16.559Z,77.40
2019-03-30T18:10:45.601Z,55.90
2019-03-30T18:13:14.667Z,53.30
2019-03-30T18:15:43.795Z,50.40
2019-03-30T18:18:12.953Z,50.57
2019-03-30T18:20:41.975Z,45.70
2019-03-30T18:23:11.030Z,34.03
2019-03-30T18:25:40.078Z,28.77
2019-03-30T18:28:09.103Z,41.57
2019-03-30T18:30:39.917Z,42.67
2019-03-30T18:33:09.144Z,31.27
2019-03-30T18:35:42.998Z,24.20
2019-03-30T18:38:13.115Z,20.23
2019-03-30T18:40:42.713Z,19.50
2019-03-30T18:43:11.955Z,17.70
2019-03-30T18:45:41.084Z,16.97
2019-03-30T18:48:14.523Z,16.37
2019-03-30T18:50:44.110Z,15.40
2019-03-30T18:53:17.536Z,16.87
2019-03-30T18:55:46.667Z,14.47
2019-03-30T18:58:15.738Z,15.20
2019-03-30T19:00:44.887Z,15.30
2019-03-30T19:03:14.004Z,15.93
2019-03-30T19:05:43.023Z,14.70
2019-03-30T19:08:12.141Z,15.40
2019-03-30T19:10:41.162Z,14.63
2019-03-30T19:13:10.230Z,14.27
2019-03-30T19:15:39.342Z,14.10
2019-03-30T19:18:08.388Z,15.97
2019-03-30T19:20:37.442Z,17.23
2019-03-30T19:23:06.520Z,16.53
2019-03-30T19:25:35.625Z,14.10
2019-03-30T19:28:04.881Z,14.87
2019-03-30T19:30:33.943Z,13.80
2019-03-30T19:33:03.054Z,13.27
2019-03-30T19:35:32.175Z,13.00
2019-03-30T19:38:01.331Z,13.37
2019-03-30T19:40:30.442Z,15.60
2019-03-30T19:43:00.835Z,14.97
2019-03-30T19:45:30.069Z,14.43
2019-03-30T19:47:59.059Z,14.83
2019-03-30T19:50:28.137Z,16.43
2019-03-30T19:52:57.157Z,14.87
2019-03-30T19:55:26.199Z,19.10
2019-03-30T19:57:55.202Z,19.57
2019-03-30T20:00:27.469Z,21.90
2019-03-30T20:02:56.524Z,20.87
2019-03-30T20:05:28.985Z,16.07
2019-03-30T20:08:11.444Z,18.33
2019-03-30T20:10:28.845Z,22.77
2019-03-30T20:12:57.886Z,29.30
2019-03-30T20:15:26.990Z,26.93
2019-03-30T20:17:56.108Z,26.47
2019-03-30T20:20:25.138Z,24.17
2019-03-30T20:22:54.146Z,25.83
2019-03-30T20:25:26.315Z,26.07
2019-03-30T20:27:55.312Z,26.13
2019-03-30T20:30:24.663Z,30.43
2019-03-30T20:32:53.655Z,32.00
2019-03-30T20:35:22.657Z,30.20
2019-03-30T20:37:51.700Z,30.70
2019-03-30T20:40:24.006Z,28.50
2019-03-30T20:42:53.050Z,27.40
2019-03-30T20:45:22.156Z,27.33
2019-03-30T20:47:51.192Z,26.13
2019-03-30T20:50:20.315Z,25.63
2019-03-30T20:52:49.328Z,30.93
2019-03-30T20:55:18.237Z,28.87
2019-03-30T20:57:47.141Z,31.53
2019-03-30T21:00:17.597Z,29.30
2019-03-30T21:02:46.295Z,30.03
2019-03-30T21:05:15.351Z,30.10
2019-03-30T21:07:44.120Z,28.07
2019-03-30T21:10:12.921Z,31.97
2019-03-30T21:12:41.715Z,35.50
2019-03-30T21:15:12.008Z,32.63
2019-03-30T21:17:40.710Z,33.73
2019-03-30T21:20:10.025Z,34.90
2019-03-30T21:22:38.841Z,35.13
2019-03-30T21:25:07.646Z,34.90
2019-03-30T21:27:36.456Z,34.53
2019-03-30T21:30:09.990Z,36.10
2019-03-30T21:32:38.924Z,37.83
2019-03-30T21:35:08.420Z,39.93
2019-03-30T21:37:37.171Z,39.87
2019-03-30T21:40:07.086Z,39.33
2019-03-30T21:42:35.828Z,41.37
2019-03-30T21:45:06.337Z,42.30
2019-03-30T21:47:35.087Z,42.83
2019-03-30T21:50:06.674Z,43.93
2019-03-30T21:52:35.354Z,41.87
2019-03-30T21:55:05.827Z,42.03
2019-03-30T21:57:34.451Z,45.23
2019-03-30T22:00:09.906Z,41.70
2019-03-30T22:02:33.577Z,42.03
2019-03-30T22:05:02.129Z,45.30
2019-03-30T22:07:31.191Z,46.60
2019-03-30T22:10:00.009Z,58.63
2019-03-30T22:12:32.633Z,81.20
2019-03-30T22:15:01.424Z,66.03
2019-03-30T22:17:29.919Z,59.10
2019-03-30T22:19:58.608Z,51.90
2019-03-30T22:22:27.291Z,47.70
2019-03-30T22:24:55.857Z,47.67
2019-03-30T22:27:24.542Z,45.17
2019-03-30T22:29:53.212Z,45.10
2019-03-30T22:32:21.833Z,43.20
2019-03-30T22:34:50.400Z,52.40
2019-03-30T22:37:19.012Z,50.63
2019-03-30T22:39:47.707Z,51.50
2019-03-30T22:42:16.336Z,50.10
2019-03-30T22:44:44.835Z,48.73
2019-03-30T22:47:14.758Z,49.73
2019-03-30T22:49:43.455Z,52.40
2019-03-30T22:52:12.096Z,55.67
2019-03-30T22:54:40.664Z,53.23
2019-03-30T22:57:09.241Z,53.73
2019-03-30T22:59:37.879Z,59.13
2019-03-30T23:02:06.621Z,62.37
2019-03-30T23:04:35.173Z,60.43
2019-03-30T23:07:03.885Z,57.87
2019-03-30T23:09:32.457Z,58.23
2019-03-30T23:12:01.220Z,58.20
2019-03-30T23:14:31.105Z,57.07
2019-03-30T23:16:59.685Z,58.20
2019-03-30T23:19:28.342Z,57.47
2019-03-30T23:22:01.285Z,56.10
2019-03-30T23:24:29.779Z,57.73
2019-03-30T23:26:58.466Z,56.13
2019-03-30T23:29:27.065Z,56.87
2019-03-30T23:31:55.696Z,57.47
2019-03-30T23:34:24.303Z,56.30
2019-03-30T23:36:52.883Z,54.93
2019-03-30T23:39:21.514Z,57.23
2019-03-30T23:41:50.117Z,61.27
2019-03-30T23:44:18.763Z,65.93
2019-03-30T23:46:47.409Z,64.70
2019-03-30T23:49:15.986Z,61.73
2019-03-30T23:51:46.107Z,63.80
2019-03-30T23:54:16.545Z,62.27
2019-03-30T23:56:45.182Z,65.47
2019-03-30T23:59:13.763Z,61.63
